Rockport, WA

10:28 AM PDT on September 22, 2014 (GMT -0700)
Diablo Dam | Change Station
CLOSE
Current Station
Personal Weather Station
Location: Diablo, WA
Elevation: 1211 ft
Nearby Weather Stations

Elev 1211 ft 48.72 °N, 121.13 °W | Updated 14 seconds ago

Mostly Cloudy
Mostly Cloudy
61.0 °F
Feels Like 61.0 °F
N
0.0
Wind Variable Wind from SSW
Gusts 0.0 mph

Today
High -- | Low -- °F
--% Chance of Precip.
Yesterday
High -- | Low -- °F
Precip. -- in
6:51 AM 7:02 PM
Waning Crescent, 2% visible
Pressure 30.01 in
Visibility 10.0 miles
Clouds Overcast 2800 ft
Dew Point 57 °F
Humidity 86%
Rainfall 0.00 in
Snow Depth 0 in , 0 in , 0 in
UV 0.0 out of 12
Pollen .80 out of 12
PM2.5 Good
Flu Activity Not available.
METAR KAWO 221715Z AUTO 15007KT 10SM OVC028 17/13 A3001 RMK AO1

More Conditions Fewer Conditions

Pressure 30.01 in
Visibility 10.0 miles
Clouds Overcast 2800 ft
Dew Point 57 °F
Humidity 86%
Rainfall 0.00 in
Snow Depth 0 in , 0 in , 0 in
UV 0.0 out of 12
Pollen .80 out of 12
PM2.5 Good
Flu Activity Not available.
METAR KAWO 221715Z AUTO 15007KT 10SM OVC028 17/13 A3001 RMK AO1

More Conditions Fewer Conditions

10-Day Weather Forecast

Almanac

Astronomy

Sep. 22, 2014 Rise Set
Actual Time 6:51 AM PDT 7:02 PM PDT
Civil Twilight 6:19 AM PDT 7:33 PM PDT
Nautical Twilight 5:42 AM PDT 8:10 PM PDT
Astronomical Twilight 5:04 AM PDT 8:48 PM PDT
Moon 5:19 AM PDT 6:15 PM PDT
Length of Visible Light 13h 13m
Length of Day
12h 10m
Tomorrow will be 3m 33s shorter.
Waning Crescent, 2% of the Moon is Illuminated
Today
Waning Crescent
Sep 24
New
Oct 1
First Quarter
Oct 8
Full
Oct 15
Last Quarter

Today's Extremes

State Highs State Lows

Community

WunderPhotos

Upload Photos

1,755,492 photos uploaded!

WunderBlogs® & News

Nearby

Air Quality

  Air Quality AQ Index Pollutant
Yesterday Good
PM2.5
Current Good
PM2.5
Monday Good
OZONE
Monday Good
PM2.5
Tuesday Good
OZONE
Tuesday Good
PM2.5

Snow Depth

Station Depth Elevation
Sourdough Gulch 0 in 4000 ft
Lost Horse 0 in 5000 ft
Bunchgrass Meadow 0 in 5000 ft
Green Lake 0 in 6000 ft
Fish Lake 0 in 3371 ft

Earthquake Activity

City Distance Mag. Time & Date
No recent earthquake activity has been reported nearby.
Minimum magnitude displayed is 2.5.

Coastal Water Temperatures

Place Temperature
No Stations Reporting

Nearby Weather Stations